sensor_id;sensor_type;location;lat;lon;timestamp;P1;durP1;ratioP1;P2;durP2;ratioP2
85725;SDS011;76169;47.278;10.984;2024-02-26T00:00:24;1.38;;;1.27;;
85725;SDS011;76169;47.278;10.984;2024-02-26T00:02:50;1.10;;;1.00;;
85725;SDS011;76169;47.278;10.984;2024-02-26T00:05:16;1.10;;;1.00;;
85725;SDS011;76169;47.278;10.984;2024-02-26T00:07:42;1.27;;;1.17;;
85725;SDS011;76169;47.278;10.984;2024-02-26T00:10:09;1.20;;;1.00;;
85725;SDS011;76169;47.278;10.984;2024-02-26T00:12:35;1.15;;;1.00;;
85725;SDS011;76169;47.278;10.984;2024-02-26T00:15:01;1.58;;;1.15;;
85725;SDS011;76169;47.278;10.984;2024-02-26T00:17:27;1.30;;;1.20;;
85725;SDS011;76169;47.278;10.984;2024-02-26T00:19:53;0.95;;;0.90;;
85725;SDS011;76169;47.278;10.984;2024-02-26T00:22:19;0.90;;;0.80;;
85725;SDS011;76169;47.278;10.984;2024-02-26T00:24:47;1.20;;;1.10;;
85725;SDS011;76169;47.278;10.984;2024-02-26T00:27:13;1.10;;;1.00;;
85725;SDS011;76169;47.278;10.984;2024-02-26T00:29:39;1.13;;;1.02;;
85725;SDS011;76169;47.278;10.984;2024-02-26T00:32:05;1.27;;;1.17;;
85725;SDS011;76169;47.278;10.984;2024-02-26T00:34:31;1.42;;;1.08;;
85725;SDS011;76169;47.278;10.984;2024-02-26T00:36:58;0.98;;;0.88;;
85725;SDS011;76169;47.278;10.984;2024-02-26T00:39:24;1.00;;;0.90;;
85725;SDS011;76169;47.278;10.984;2024-02-26T00:41:50;1.20;;;0.90;;
85725;SDS011;76169;47.278;10.984;2024-02-26T00:44:16;1.10;;;1.00;;
85725;SDS011;76169;47.278;10.984;2024-02-26T00:46:43;0.98;;;0.98;;
85725;SDS011;76169;47.278;10.984;2024-02-26T00:49:09;1.52;;;1.13;;
85725;SDS011;76169;47.278;10.984;2024-02-26T00:51:35;1.00;;;0.90;;
85725;SDS011;76169;47.278;10.984;2024-02-26T00:54:01;1.00;;;0.75;;
85725;SDS011;76169;47.278;10.984;2024-02-26T00:56:27;1.00;;;0.90;;
85725;SDS011;76169;47.278;10.984;2024-02-26T00:58:53;1.13;;;1.02;;
85725;SDS011;76169;47.278;10.984;2024-02-26T01:01:19;1.20;;;1.10;;
85725;SDS011;76169;47.278;10.984;2024-02-26T01:03:45;1.13;;;1.00;;
85725;SDS011;76169;47.278;10.984;2024-02-26T01:06:11;1.20;;;0.90;;
85725;SDS011;76169;47.278;10.984;2024-02-26T01:08:37;1.30;;;1.20;;
85725;SDS011;76169;47.278;10.984;2024-02-26T01:11:04;1.23;;;1.10;;
85725;SDS011;76169;47.278;10.984;2024-02-26T01:13:30;1.10;;;0.98;;
85725;SDS011;76169;47.278;10.984;2024-02-26T01:15:56;1.23;;;1.13;;
85725;SDS011;76169;47.278;10.984;2024-02-26T01:18:22;1.10;;;1.00;;
85725;SDS011;76169;47.278;10.984;2024-02-26T01:20:48;1.30;;;1.20;;
85725;SDS011;76169;47.278;10.984;2024-02-26T01:23:14;1.38;;;1.20;;
85725;SDS011;76169;47.278;10.984;2024-02-26T01:25:40;1.83;;;1.20;;
85725;SDS011;76169;47.278;10.984;2024-02-26T01:28:08;1.25;;;0.98;;
85725;SDS011;76169;47.278;10.984;2024-02-26T01:30:34;1.23;;;1.13;;
85725;SDS011;76169;47.278;10.984;2024-02-26T01:33:00;1.73;;;1.23;;
85725;SDS011;76169;47.278;10.984;2024-02-26T01:35:26;1.52;;;1.20;;
85725;SDS011;76169;47.278;10.984;2024-02-26T01:37:52;1.20;;;1.10;;
85725;SDS011;76169;47.278;10.984;2024-02-26T01:40:18;1.10;;;1.05;;
85725;SDS011;76169;47.278;10.984;2024-02-26T01:42:45;1.55;;;1.25;;
85725;SDS011;76169;47.278;10.984;2024-02-26T01:45:15;1.10;;;1.00;;
85725;SDS011;76169;47.278;10.984;2024-02-26T01:47:46;1.38;;;1.08;;
85725;SDS011;76169;47.278;10.984;2024-02-26T01:50:13;1.55;;;1.10;;
85725;SDS011;76169;47.278;10.984;2024-02-26T01:52:39;1.23;;;1.08;;
85725;SDS011;76169;47.278;10.984;2024-02-26T01:55:09;1.30;;;1.17;;
85725;SDS011;76169;47.278;10.984;2024-02-26T01:57:35;1.55;;;1.15;;
85725;SDS011;76169;47.278;10.984;2024-02-26T02:00:01;0.93;;;0.80;;
85725;SDS011;76169;47.278;10.984;2024-02-26T02:02:30;1.40;;;1.20;;
85725;SDS011;76169;47.278;10.984;2024-02-26T02:04:57;1.60;;;1.33;;
85725;SDS011;76169;47.278;10.984;2024-02-26T02:07:23;1.20;;;1.10;;
85725;SDS011;76169;47.278;10.984;2024-02-26T02:09:50;1.25;;;1.05;;
85725;SDS011;76169;47.278;10.984;2024-02-26T02:12:16;5.00;;;1.30;;
85725;SDS011;76169;47.278;10.984;2024-02-26T02:14:42;1.42;;;1.05;;
85725;SDS011;76169;47.278;10.984;2024-02-26T02:17:08;1.40;;;1.30;;
85725;SDS011;76169;47.278;10.984;2024-02-26T02:19:35;1.48;;;1.08;;
85725;SDS011;76169;47.278;10.984;2024-02-26T02:22:01;1.38;;;1.08;;
85725;SDS011;76169;47.278;10.984;2024-02-26T02:24:27;1.25;;;1.13;;
85725;SDS011;76169;47.278;10.984;2024-02-26T02:26:53;1.63;;;1.20;;
85725;SDS011;76169;47.278;10.984;2024-02-26T02:29:19;1.50;;;1.40;;
85725;SDS011;76169;47.278;10.984;2024-02-26T02:31:45;1.20;;;1.10;;
85725;SDS011;76169;47.278;10.984;2024-02-26T02:34:11;1.33;;;1.20;;
85725;SDS011;76169;47.278;10.984;2024-02-26T02:36:53;1.25;;;1.05;;
85725;SDS011;76169;47.278;10.984;2024-02-26T02:39:20;1.20;;;1.10;;
85725;SDS011;76169;47.278;10.984;2024-02-26T02:41:46;1.52;;;1.15;;
85725;SDS011;76169;47.278;10.984;2024-02-26T02:44:12;1.60;;;1.50;;
85725;SDS011;76169;47.278;10.984;2024-02-26T02:46:38;1.27;;;1.17;;
85725;SDS011;76169;47.278;10.984;2024-02-26T02:49:08;1.88;;;1.30;;
85725;SDS011;76169;47.278;10.984;2024-02-26T02:51:35;1.10;;;1.00;;
85725;SDS011;76169;47.278;10.984;2024-02-26T02:54:01;1.00;;;0.90;;
85725;SDS011;76169;47.278;10.984;2024-02-26T02:56:27;1.10;;;1.00;;
85725;SDS011;76169;47.278;10.984;2024-02-26T02:58:53;1.23;;;0.93;;
85725;SDS011;76169;47.278;10.984;2024-02-26T03:01:19;1.38;;;1.17;;
85725;SDS011;76169;47.278;10.984;2024-02-26T03:03:45;1.50;;;1.30;;
85725;SDS011;76169;47.278;10.984;2024-02-26T03:06:11;1.20;;;1.10;;
85725;SDS011;76169;47.278;10.984;2024-02-26T03:08:37;1.30;;;1.20;;
85725;SDS011;76169;47.278;10.984;2024-02-26T03:11:04;1.17;;;1.08;;
85725;SDS011;76169;47.278;10.984;2024-02-26T03:13:31;1.30;;;1.20;;
85725;SDS011;76169;47.278;10.984;2024-02-26T03:15:57;1.73;;;1.25;;
85725;SDS011;76169;47.278;10.984;2024-02-26T03:18:23;1.95;;;1.23;;
85725;SDS011;76169;47.278;10.984;2024-02-26T03:20:49;1.20;;;1.10;;
85725;SDS011;76169;47.278;10.984;2024-02-26T03:23:15;1.35;;;1.15;;
85725;SDS011;76169;47.278;10.984;2024-02-26T03:25:42;1.30;;;1.20;;
85725;SDS011;76169;47.278;10.984;2024-02-26T03:28:08;1.50;;;1.30;;
85725;SDS011;76169;47.278;10.984;2024-02-26T03:30:34;1.70;;;1.40;;
85725;SDS011;76169;47.278;10.984;2024-02-26T03:33:00;1.27;;;1.17;;
85725;SDS011;76169;47.278;10.984;2024-02-26T03:35:26;1.20;;;1.08;;
85725;SDS011;76169;47.278;10.984;2024-02-26T03:37:53;1.40;;;1.10;;
85725;SDS011;76169;47.278;10.984;2024-02-26T03:40:19;2.15;;;1.27;;
85725;SDS011;76169;47.278;10.984;2024-02-26T03:42:45;1.65;;;1.20;;
85725;SDS011;76169;47.278;10.984;2024-02-26T03:45:11;1.60;;;1.45;;
85725;SDS011;76169;47.278;10.984;2024-02-26T03:47:37;1.20;;;1.00;;
85725;SDS011;76169;47.278;10.984;2024-02-26T03:50:06;1.45;;;1.17;;
85725;SDS011;76169;47.278;10.984;2024-02-26T03:52:33;1.35;;;1.10;;
85725;SDS011;76169;47.278;10.984;2024-02-26T03:54:59;1.13;;;1.02;;
85725;SDS011;76169;47.278;10.984;2024-02-26T03:57:25;1.25;;;1.15;;
85725;SDS011;76169;47.278;10.984;2024-02-26T03:59:51;2.75;;;1.30;;
85725;SDS011;76169;47.278;10.984;2024-02-26T04:02:18;1.20;;;1.10;;
85725;SDS011;76169;47.278;10.984;2024-02-26T04:04:48;1.63;;;1.17;;
85725;SDS011;76169;47.278;10.984;2024-02-26T04:07:14;1.27;;;1.10;;
85725;SDS011;76169;47.278;10.984;2024-02-26T04:09:40;1.20;;;1.10;;
85725;SDS011;76169;47.278;10.984;2024-02-26T04:12:06;1.10;;;1.00;;
85725;SDS011;76169;47.278;10.984;2024-02-26T04:14:32;1.52;;;1.17;;
85725;SDS011;76169;47.278;10.984;2024-02-26T04:16:58;1.52;;;1.25;;
85725;SDS011;76169;47.278;10.984;2024-02-26T04:19:24;1.30;;;1.20;;
85725;SDS011;76169;47.278;10.984;2024-02-26T04:21:50;1.20;;;1.10;;
85725;SDS011;76169;47.278;10.984;2024-02-26T04:24:16;2.47;;;1.10;;
85725;SDS011;76169;47.278;10.984;2024-02-26T04:26:43;1.30;;;1.20;;
85725;SDS011;76169;47.278;10.984;2024-02-26T04:29:09;1.65;;;1.30;;
85725;SDS011;76169;47.278;10.984;2024-02-26T04:31:36;1.30;;;1.00;;
85725;SDS011;76169;47.278;10.984;2024-02-26T04:34:03;1.35;;;1.25;;
85725;SDS011;76169;47.278;10.984;2024-02-26T04:36:29;1.23;;;1.10;;
85725;SDS011;76169;47.278;10.984;2024-02-26T04:38:55;1.23;;;1.13;;
85725;SDS011;76169;47.278;10.984;2024-02-26T04:41:21;2.00;;;1.20;;
85725;SDS011;76169;47.278;10.984;2024-02-26T04:43:47;1.30;;;1.20;;
85725;SDS011;76169;47.278;10.984;2024-02-26T04:46:13;1.15;;;1.00;;
85725;SDS011;76169;47.278;10.984;2024-02-26T04:48:39;1.67;;;1.40;;
85725;SDS011;76169;47.278;10.984;2024-02-26T04:51:07;1.40;;;1.30;;
85725;SDS011;76169;47.278;10.984;2024-02-26T04:53:33;1.10;;;1.00;;
85725;SDS011;76169;47.278;10.984;2024-02-26T04:55:59;1.17;;;1.08;;
85725;SDS011;76169;47.278;10.984;2024-02-26T04:58:25;1.30;;;1.15;;
85725;SDS011;76169;47.278;10.984;2024-02-26T05:00:51;0.90;;;0.90;;
85725;SDS011;76169;47.278;10.984;2024-02-26T05:03:17;1.60;;;1.10;;
85725;SDS011;76169;47.278;10.984;2024-02-26T05:05:43;2.33;;;1.17;;
85725;SDS011;76169;47.278;10.984;2024-02-26T05:08:09;1.17;;;1.10;;
85725;SDS011;76169;47.278;10.984;2024-02-26T05:10:37;1.23;;;1.08;;
85725;SDS011;76169;47.278;10.984;2024-02-26T05:13:05;1.17;;;1.00;;
85725;SDS011;76169;47.278;10.984;2024-02-26T05:15:32;1.45;;;1.33;;
85725;SDS011;76169;47.278;10.984;2024-02-26T05:17:58;1.20;;;0.93;;
85725;SDS011;76169;47.278;10.984;2024-02-26T05:20:24;1.42;;;1.13;;
85725;SDS011;76169;47.278;10.984;2024-02-26T05:22:50;1.27;;;1.17;;
85725;SDS011;76169;47.278;10.984;2024-02-26T05:25:17;1.40;;;1.30;;
85725;SDS011;76169;47.278;10.984;2024-02-26T05:27:43;1.27;;;1.10;;
85725;SDS011;76169;47.278;10.984;2024-02-26T05:30:10;1.30;;;1.15;;
85725;SDS011;76169;47.278;10.984;2024-02-26T05:32:36;1.13;;;1.02;;
85725;SDS011;76169;47.278;10.984;2024-02-26T05:35:02;1.65;;;1.20;;
85725;SDS011;76169;47.278;10.984;2024-02-26T05:37:28;0.88;;;0.80;;
85725;SDS011;76169;47.278;10.984;2024-02-26T05:39:54;1.15;;;1.05;;
85725;SDS011;76169;47.278;10.984;2024-02-26T05:42:21;0.80;;;0.80;;
85725;SDS011;76169;47.278;10.984;2024-02-26T05:44:47;1.17;;;1.05;;
85725;SDS011;76169;47.278;10.984;2024-02-26T05:47:13;1.15;;;1.05;;
85725;SDS011;76169;47.278;10.984;2024-02-26T05:49:39;0.98;;;0.93;;
85725;SDS011;76169;47.278;10.984;2024-02-26T05:52:05;1.10;;;1.00;;
85725;SDS011;76169;47.278;10.984;2024-02-26T05:54:31;1.67;;;1.10;;
85725;SDS011;76169;47.278;10.984;2024-02-26T05:56:58;1.60;;;1.10;;
85725;SDS011;76169;47.278;10.984;2024-02-26T05:59:24;1.30;;;1.13;;
85725;SDS011;76169;47.278;10.984;2024-02-26T06:01:50;1.23;;;1.13;;
85725;SDS011;76169;47.278;10.984;2024-02-26T06:04:16;0.90;;;0.90;;
85725;SDS011;76169;47.278;10.984;2024-02-26T06:09:09;1.17;;;1.08;;
85725;SDS011;76169;47.278;10.984;2024-02-26T06:11:36;1.10;;;1.00;;
85725;SDS011;76169;47.278;10.984;2024-02-26T06:14:02;1.20;;;1.10;;
85725;SDS011;76169;47.278;10.984;2024-02-26T06:16:28;1.20;;;1.10;;
85725;SDS011;76169;47.278;10.984;2024-02-26T06:18:54;1.02;;;1.00;;
85725;SDS011;76169;47.278;10.984;2024-02-26T06:21:21;1.20;;;1.10;;
85725;SDS011;76169;47.278;10.984;2024-02-26T06:23:47;1.35;;;1.08;;
85725;SDS011;76169;47.278;10.984;2024-02-26T06:26:14;1.10;;;1.00;;
85725;SDS011;76169;47.278;10.984;2024-02-26T06:28:40;1.00;;;0.98;;
85725;SDS011;76169;47.278;10.984;2024-02-26T06:31:06;1.08;;;1.00;;
85725;SDS011;76169;47.278;10.984;2024-02-26T06:33:32;1.00;;;1.00;;
85725;SDS011;76169;47.278;10.984;2024-02-26T06:35:58;1.33;;;1.23;;
85725;SDS011;76169;47.278;10.984;2024-02-26T06:38:24;1.23;;;1.02;;
85725;SDS011;76169;47.278;10.984;2024-02-26T06:40:50;1.20;;;1.10;;
85725;SDS011;76169;47.278;10.984;2024-02-26T06:43:17;1.10;;;1.00;;
85725;SDS011;76169;47.278;10.984;2024-02-26T06:45:43;1.25;;;1.08;;
85725;SDS011;76169;47.278;10.984;2024-02-26T06:48:09;1.40;;;1.10;;
85725;SDS011;76169;47.278;10.984;2024-02-26T06:50:35;1.25;;;1.15;;
85725;SDS011;76169;47.278;10.984;2024-02-26T06:53:01;1.25;;;1.10;;
85725;SDS011;76169;47.278;10.984;2024-02-26T06:55:27;1.45;;;1.30;;
85725;SDS011;76169;47.278;10.984;2024-02-26T06:57:53;1.08;;;1.00;;
85725;SDS011;76169;47.278;10.984;2024-02-26T07:00:19;1.30;;;1.10;;
85725;SDS011;76169;47.278;10.984;2024-02-26T07:02:45;1.00;;;1.00;;
85725;SDS011;76169;47.278;10.984;2024-02-26T07:05:11;1.55;;;1.23;;
85725;SDS011;76169;47.278;10.984;2024-02-26T07:07:37;2.72;;;1.05;;
85725;SDS011;76169;47.278;10.984;2024-02-26T07:10:03;1.10;;;1.00;;
85725;SDS011;76169;47.278;10.984;2024-02-26T07:12:33;2.03;;;1.30;;
85725;SDS011;76169;47.278;10.984;2024-02-26T07:14:59;1.15;;;1.00;;
85725;SDS011;76169;47.278;10.984;2024-02-26T07:17:25;1.33;;;1.00;;
85725;SDS011;76169;47.278;10.984;2024-02-26T07:19:51;1.23;;;0.90;;
85725;SDS011;76169;47.278;10.984;2024-02-26T07:22:17;1.20;;;1.10;;
85725;SDS011;76169;47.278;10.984;2024-02-26T07:24:43;1.83;;;1.10;;
85725;SDS011;76169;47.278;10.984;2024-02-26T07:27:10;2.20;;;1.15;;
85725;SDS011;76169;47.278;10.984;2024-02-26T07:29:36;1.75;;;1.20;;
85725;SDS011;76169;47.278;10.984;2024-02-26T07:32:02;3.38;;;1.10;;
85725;SDS011;76169;47.278;10.984;2024-02-26T07:34:28;2.25;;;1.15;;
85725;SDS011;76169;47.278;10.984;2024-02-26T07:36:55;3.53;;;1.10;;
85725;SDS011;76169;47.278;10.984;2024-02-26T07:39:21;2.30;;;1.15;;
85725;SDS011;76169;47.278;10.984;2024-02-26T07:41:48;1.10;;;1.00;;
85725;SDS011;76169;47.278;10.984;2024-02-26T07:44:16;1.77;;;1.15;;
85725;SDS011;76169;47.278;10.984;2024-02-26T07:46:43;1.23;;;0.95;;
85725;SDS011;76169;47.278;10.984;2024-02-26T07:49:09;1.63;;;1.13;;
85725;SDS011;76169;47.278;10.984;2024-02-26T07:51:35;1.35;;;1.05;;
85725;SDS011;76169;47.278;10.984;2024-02-26T07:54:02;3.42;;;1.30;;
85725;SDS011;76169;47.278;10.984;2024-02-26T07:56:28;1.88;;;1.20;;
85725;SDS011;76169;47.278;10.984;2024-02-26T07:58:54;6.68;;;1.33;;
85725;SDS011;76169;47.278;10.984;2024-02-26T08:01:20;3.60;;;1.48;;
85725;SDS011;76169;47.278;10.984;2024-02-26T08:03:48;4.18;;;1.15;;
85725;SDS011;76169;47.278;10.984;2024-02-26T08:06:16;5.10;;;1.20;;
85725;SDS011;76169;47.278;10.984;2024-02-26T08:08:42;1.95;;;1.20;;
85725;SDS011;76169;47.278;10.984;2024-02-26T08:11:09;4.20;;;1.10;;
85725;SDS011;76169;47.278;10.984;2024-02-26T08:13:35;4.03;;;1.23;;
85725;SDS011;76169;47.278;10.984;2024-02-26T08:16:01;3.28;;;1.25;;
85725;SDS011;76169;47.278;10.984;2024-02-26T08:18:27;6.28;;;1.40;;
85725;SDS011;76169;47.278;10.984;2024-02-26T08:20:53;4.50;;;1.50;;
85725;SDS011;76169;47.278;10.984;2024-02-26T08:23:19;3.50;;;0.98;;
85725;SDS011;76169;47.278;10.984;2024-02-26T08:25:45;11.88;;;1.60;;
85725;SDS011;76169;47.278;10.984;2024-02-26T08:28:11;4.80;;;1.65;;
85725;SDS011;76169;47.278;10.984;2024-02-26T08:30:38;7.00;;;1.50;;
85725;SDS011;76169;47.278;10.984;2024-02-26T08:33:04;3.00;;;1.35;;
85725;SDS011;76169;47.278;10.984;2024-02-26T08:35:30;4.15;;;1.60;;
85725;SDS011;76169;47.278;10.984;2024-02-26T08:37:56;6.55;;;1.50;;
85725;SDS011;76169;47.278;10.984;2024-02-26T08:40:22;8.82;;;1.60;;
85725;SDS011;76169;47.278;10.984;2024-02-26T08:42:48;7.70;;;1.60;;
85725;SDS011;76169;47.278;10.984;2024-02-26T08:45:14;12.73;;;1.63;;
85725;SDS011;76169;47.278;10.984;2024-02-26T08:47:40;3.15;;;1.33;;
85725;SDS011;76169;47.278;10.984;2024-02-26T08:50:06;6.05;;;1.33;;
85725;SDS011;76169;47.278;10.984;2024-02-26T08:52:34;7.00;;;1.50;;
85725;SDS011;76169;47.278;10.984;2024-02-26T08:55:01;5.18;;;1.60;;
85725;SDS011;76169;47.278;10.984;2024-02-26T08:57:27;5.13;;;1.63;;
85725;SDS011;76169;47.278;10.984;2024-02-26T08:59:53;4.68;;;1.42;;
85725;SDS011;76169;47.278;10.984;2024-02-26T09:02:19;9.10;;;1.50;;
85725;SDS011;76169;47.278;10.984;2024-02-26T09:04:45;9.20;;;1.38;;
85725;SDS011;76169;47.278;10.984;2024-02-26T09:07:12;8.15;;;1.55;;
85725;SDS011;76169;47.278;10.984;2024-02-26T09:09:38;7.18;;;1.67;;
85725;SDS011;76169;47.278;10.984;2024-02-26T09:12:04;7.45;;;1.27;;
85725;SDS011;76169;47.278;10.984;2024-02-26T09:14:30;3.88;;;1.20;;
85725;SDS011;76169;47.278;10.984;2024-02-26T09:16:56;5.63;;;1.48;;
85725;SDS011;76169;47.278;10.984;2024-02-26T09:19:23;3.80;;;1.50;;
85725;SDS011;76169;47.278;10.984;2024-02-26T09:21:50;7.93;;;1.50;;
85725;SDS011;76169;47.278;10.984;2024-02-26T09:24:16;3.92;;;1.27;;
85725;SDS011;76169;47.278;10.984;2024-02-26T09:26:42;7.50;;;1.40;;
85725;SDS011;76169;47.278;10.984;2024-02-26T09:29:08;3.58;;;1.08;;
85725;SDS011;76169;47.278;10.984;2024-02-26T09:31:34;8.07;;;1.63;;
85725;SDS011;76169;47.278;10.984;2024-02-26T09:34:00;4.53;;;1.50;;
85725;SDS011;76169;47.278;10.984;2024-02-26T09:36:26;3.35;;;1.17;;
85725;SDS011;76169;47.278;10.984;2024-02-26T09:38:52;8.27;;;1.63;;
85725;SDS011;76169;47.278;10.984;2024-02-26T09:41:19;5.75;;;1.23;;
85725;SDS011;76169;47.278;10.984;2024-02-26T09:43:45;3.70;;;1.25;;
85725;SDS011;76169;47.278;10.984;2024-02-26T09:46:14;4.75;;;1.40;;
85725;SDS011;76169;47.278;10.984;2024-02-26T09:48:42;3.85;;;1.15;;
85725;SDS011;76169;47.278;10.984;2024-02-26T09:51:10;5.40;;;1.30;;
85725;SDS011;76169;47.278;10.984;2024-02-26T09:53:39;2.83;;;1.40;;
85725;SDS011;76169;47.278;10.984;2024-02-26T09:56:08;7.60;;;1.40;;
85725;SDS011;76169;47.278;10.984;2024-02-26T09:58:34;2.28;;;1.15;;
85725;SDS011;76169;47.278;10.984;2024-02-26T10:01:02;4.07;;;1.48;;
85725;SDS011;76169;47.278;10.984;2024-02-26T10:03:30;7.60;;;1.70;;
85725;SDS011;76169;47.278;10.984;2024-02-26T10:05:57;7.80;;;1.40;;
85725;SDS011;76169;47.278;10.984;2024-02-26T10:08:24;2.35;;;1.20;;
85725;SDS011;76169;47.278;10.984;2024-02-26T10:10:50;4.30;;;1.33;;
85725;SDS011;76169;47.278;10.984;2024-02-26T10:13:16;4.63;;;1.40;;
85725;SDS011;76169;47.278;10.984;2024-02-26T10:15:44;3.88;;;1.15;;
85725;SDS011;76169;47.278;10.984;2024-02-26T10:18:11;5.10;;;1.20;;
85725;SDS011;76169;47.278;10.984;2024-02-26T10:20:37;3.53;;;1.23;;
85725;SDS011;76169;47.278;10.984;2024-02-26T10:23:03;2.95;;;1.17;;
85725;SDS011;76169;47.278;10.984;2024-02-26T10:25:32;3.88;;;1.27;;
85725;SDS011;76169;47.278;10.984;2024-02-26T10:27:59;6.28;;;1.17;;
85725;SDS011;76169;47.278;10.984;2024-02-26T10:30:29;5.18;;;1.45;;
85725;SDS011;76169;47.278;10.984;2024-02-26T10:32:55;2.83;;;1.25;;
85725;SDS011;76169;47.278;10.984;2024-02-26T10:35:23;4.20;;;1.30;;
85725;SDS011;76169;47.278;10.984;2024-02-26T10:37:49;3.47;;;1.13;;
85725;SDS011;76169;47.278;10.984;2024-02-26T10:40:16;4.38;;;1.48;;
85725;SDS011;76169;47.278;10.984;2024-02-26T10:42:42;2.35;;;1.13;;
85725;SDS011;76169;47.278;10.984;2024-02-26T10:45:10;3.80;;;1.33;;
85725;SDS011;76169;47.278;10.984;2024-02-26T10:47:36;1.42;;;1.00;;
85725;SDS011;76169;47.278;10.984;2024-02-26T10:50:03;6.07;;;1.33;;
85725;SDS011;76169;47.278;10.984;2024-02-26T10:52:31;5.15;;;1.20;;
85725;SDS011;76169;47.278;10.984;2024-02-26T10:54:59;2.30;;;1.10;;
85725;SDS011;76169;47.278;10.984;2024-02-26T10:57:27;1.70;;;0.93;;
85725;SDS011;76169;47.278;10.984;2024-02-26T10:59:57;3.67;;;1.25;;
85725;SDS011;76169;47.278;10.984;2024-02-26T11:02:23;2.88;;;1.00;;
85725;SDS011;76169;47.278;10.984;2024-02-26T11:04:49;4.78;;;1.20;;
85725;SDS011;76169;47.278;10.984;2024-02-26T11:07:15;3.78;;;1.20;;
85725;SDS011;76169;47.278;10.984;2024-02-26T11:09:41;5.97;;;1.40;;
85725;SDS011;76169;47.278;10.984;2024-02-26T11:12:10;5.93;;;1.42;;
85725;SDS011;76169;47.278;10.984;2024-02-26T11:14:38;3.33;;;1.23;;
85725;SDS011;76169;47.278;10.984;2024-02-26T11:17:04;6.25;;;1.45;;
85725;SDS011;76169;47.278;10.984;2024-02-26T11:19:31;2.70;;;1.13;;
85725;SDS011;76169;47.278;10.984;2024-02-26T11:22:00;5.55;;;1.67;;
85725;SDS011;76169;47.278;10.984;2024-02-26T11:24:26;3.45;;;1.35;;
85725;SDS011;76169;47.278;10.984;2024-02-26T11:26:53;5.60;;;1.17;;
85725;SDS011;76169;47.278;10.984;2024-02-26T11:29:29;6.90;;;1.50;;
85725;SDS011;76169;47.278;10.984;2024-02-26T11:31:55;3.95;;;1.35;;
85725;SDS011;76169;47.278;10.984;2024-02-26T11:34:21;6.05;;;1.52;;
85725;SDS011;76169;47.278;10.984;2024-02-26T11:36:48;4.07;;;1.40;;
85725;SDS011;76169;47.278;10.984;2024-02-26T11:39:14;5.68;;;1.25;;
85725;SDS011;76169;47.278;10.984;2024-02-26T11:41:42;4.55;;;1.23;;
85725;SDS011;76169;47.278;10.984;2024-02-26T11:44:09;1.85;;;1.02;;
85725;SDS011;76169;47.278;10.984;2024-02-26T11:46:39;2.65;;;1.00;;
85725;SDS011;76169;47.278;10.984;2024-02-26T11:51:51;2.73;;;1.10;;
85725;SDS011;76169;47.278;10.984;2024-02-26T11:57:02;3.70;;;1.05;;
85725;SDS011;76169;47.278;10.984;2024-02-26T11:59:37;3.78;;;1.10;;
85725;SDS011;76169;47.278;10.984;2024-02-26T12:02:03;6.00;;;1.50;;
85725;SDS011;76169;47.278;10.984;2024-02-26T12:04:30;5.60;;;1.25;;
85725;SDS011;76169;47.278;10.984;2024-02-26T12:06:57;2.88;;;1.17;;
85725;SDS011;76169;47.278;10.984;2024-02-26T12:12:02;4.28;;;1.20;;
85725;SDS011;76169;47.278;10.984;2024-02-26T12:14:28;3.35;;;1.30;;
85725;SDS011;76169;47.278;10.984;2024-02-26T12:16:55;2.00;;;1.08;;
85725;SDS011;76169;47.278;10.984;2024-02-26T12:19:21;3.50;;;1.10;;
85725;SDS011;76169;47.278;10.984;2024-02-26T12:21:51;3.35;;;1.30;;
85725;SDS011;76169;47.278;10.984;2024-02-26T12:24:18;2.78;;;0.85;;
85725;SDS011;76169;47.278;10.984;2024-02-26T12:26:45;3.53;;;0.95;;
85725;SDS011;76169;47.278;10.984;2024-02-26T12:29:11;1.30;;;1.13;;
85725;SDS011;76169;47.278;10.984;2024-02-26T12:31:38;5.30;;;1.67;;
85725;SDS011;76169;47.278;10.984;2024-02-26T12:34:05;3.10;;;1.13;;
85725;SDS011;76169;47.278;10.984;2024-02-26T12:36:32;3.85;;;1.10;;
85725;SDS011;76169;47.278;10.984;2024-02-26T12:39:02;5.13;;;0.90;;
85725;SDS011;76169;47.278;10.984;2024-02-26T12:41:31;5.75;;;1.17;;
85725;SDS011;76169;47.278;10.984;2024-02-26T12:43:57;2.67;;;1.00;;
85725;SDS011;76169;47.278;10.984;2024-02-26T12:46:23;2.17;;;1.17;;
85725;SDS011;76169;47.278;10.984;2024-02-26T12:48:49;2.83;;;1.23;;
85725;SDS011;76169;47.278;10.984;2024-02-26T12:51:16;4.40;;;1.20;;
85725;SDS011;76169;47.278;10.984;2024-02-26T12:53:42;2.85;;;1.17;;
85725;SDS011;76169;47.278;10.984;2024-02-26T12:56:09;3.55;;;1.15;;
85725;SDS011;76169;47.278;10.984;2024-02-26T12:58:37;3.30;;;1.20;;
85725;SDS011;76169;47.278;10.984;2024-02-26T13:01:04;2.05;;;1.00;;
85725;SDS011;76169;47.278;10.984;2024-02-26T13:03:31;2.72;;;1.10;;
85725;SDS011;76169;47.278;10.984;2024-02-26T13:05:57;1.20;;;0.98;;
85725;SDS011;76169;47.278;10.984;2024-02-26T13:08:23;1.92;;;0.98;;
85725;SDS011;76169;47.278;10.984;2024-02-26T13:10:49;2.13;;;1.08;;
85725;SDS011;76169;47.278;10.984;2024-02-26T13:13:17;3.85;;;0.98;;
85725;SDS011;76169;47.278;10.984;2024-02-26T13:15:45;2.03;;;1.13;;
85725;SDS011;76169;47.278;10.984;2024-02-26T13:18:11;2.28;;;1.00;;
85725;SDS011;76169;47.278;10.984;2024-02-26T13:20:38;1.98;;;0.77;;
85725;SDS011;76169;47.278;10.984;2024-02-26T13:23:08;2.67;;;0.90;;
85725;SDS011;76169;47.278;10.984;2024-02-26T13:25:34;5.50;;;0.98;;
85725;SDS011;76169;47.278;10.984;2024-02-26T13:28:07;2.10;;;1.15;;
85725;SDS011;76169;47.278;10.984;2024-02-26T13:30:34;2.35;;;0.77;;
85725;SDS011;76169;47.278;10.984;2024-02-26T13:33:07;2.00;;;1.00;;
85725;SDS011;76169;47.278;10.984;2024-02-26T13:38:01;3.58;;;1.00;;
85725;SDS011;76169;47.278;10.984;2024-02-26T13:40:27;1.38;;;0.98;;
85725;SDS011;76169;47.278;10.984;2024-02-26T13:42:54;1.10;;;1.00;;
85725;SDS011;76169;47.278;10.984;2024-02-26T13:45:20;1.65;;;0.82;;
85725;SDS011;76169;47.278;10.984;2024-02-26T13:47:46;1.70;;;1.00;;
85725;SDS011;76169;47.278;10.984;2024-02-26T13:50:12;1.98;;;1.00;;
85725;SDS011;76169;47.278;10.984;2024-02-26T13:52:38;3.00;;;0.80;;
85725;SDS011;76169;47.278;10.984;2024-02-26T13:55:04;2.92;;;1.05;;
85725;SDS011;76169;47.278;10.984;2024-02-26T13:57:30;3.67;;;0.90;;
85725;SDS011;76169;47.278;10.984;2024-02-26T13:59:57;3.28;;;0.90;;
85725;SDS011;76169;47.278;10.984;2024-02-26T14:02:23;4.47;;;1.15;;
85725;SDS011;76169;47.278;10.984;2024-02-26T14:04:49;2.78;;;0.75;;
85725;SDS011;76169;47.278;10.984;2024-02-26T14:07:15;2.53;;;0.88;;
85725;SDS011;76169;47.278;10.984;2024-02-26T14:09:44;2.13;;;0.80;;
85725;SDS011;76169;47.278;10.984;2024-02-26T14:12:10;3.92;;;1.02;;
85725;SDS011;76169;47.278;10.984;2024-02-26T14:14:36;1.80;;;0.80;;
85725;SDS011;76169;47.278;10.984;2024-02-26T14:17:04;1.90;;;1.00;;
85725;SDS011;76169;47.278;10.984;2024-02-26T14:19:30;4.50;;;0.93;;
85725;SDS011;76169;47.278;10.984;2024-02-26T14:21:57;3.10;;;0.93;;
85725;SDS011;76169;47.278;10.984;2024-02-26T14:24:23;2.30;;;1.15;;
85725;SDS011;76169;47.278;10.984;2024-02-26T14:26:49;2.95;;;0.90;;
85725;SDS011;76169;47.278;10.984;2024-02-26T14:29:15;1.48;;;0.73;;
85725;SDS011;76169;47.278;10.984;2024-02-26T14:31:41;1.65;;;0.80;;
85725;SDS011;76169;47.278;10.984;2024-02-26T14:34:08;3.67;;;1.00;;
85725;SDS011;76169;47.278;10.984;2024-02-26T14:36:34;2.28;;;0.90;;
85725;SDS011;76169;47.278;10.984;2024-02-26T14:39:00;7.93;;;1.40;;
85725;SDS011;76169;47.278;10.984;2024-02-26T14:41:26;14.00;;;1.77;;